createdAt,value
2022-10-18T00:00:14.560Z,98659.44
2022-10-18T00:04:17.687Z,98659.34
2022-10-18T00:08:22.606Z,98659.25
2022-10-18T00:12:34.391Z,98671.25
2022-10-18T00:16:37.465Z,98681.63
2022-10-18T00:20:41.063Z,98679.31
2022-10-18T00:24:45.628Z,98674.06
2022-10-18T00:28:52.953Z,98679.59
2022-10-18T00:32:56.713Z,98679.22
2022-10-18T00:36:59.861Z,98675.91
2022-10-18T00:41:05.072Z,98674.00
2022-10-18T00:45:20.455Z,98669.13
2022-10-18T00:49:29.039Z,98663.19
2022-10-18T00:53:32.211Z,98652.16
2022-10-18T00:57:38.264Z,98650.47
2022-10-18T01:01:41.812Z,98644.19
2022-10-18T01:05:48.961Z,98646.47
2022-10-18T01:10:00.551Z,98644.25
2022-10-18T01:14:14.482Z,98635.22
2022-10-18T01:18:25.537Z,98629.00
2022-10-18T01:22:33.123Z,98628.41
2022-10-18T01:26:54.247Z,98618.72
2022-10-18T01:31:01.753Z,98628.84
2022-10-18T01:35:09.762Z,98629.16
2022-10-18T01:39:17.002Z,98614.84
2022-10-18T01:43:22.953Z,98619.34
2022-10-18T01:47:29.953Z,98621.03
2022-10-18T01:51:34.571Z,98623.06
2022-10-18T01:55:45.301Z,98637.69
2022-10-18T01:59:56.059Z,98642.94
2022-10-18T02:04:09.958Z,98636.00
2022-10-18T02:08:24.009Z,98639.34
2022-10-18T02:12:30.573Z,98636.88
2022-10-18T02:16:39.451Z,98635.75
2022-10-18T02:20:44.149Z,98643.00
2022-10-18T02:24:50.870Z,98650.13
2022-10-18T02:28:54.153Z,98656.25
2022-10-18T02:33:02.912Z,98651.81
2022-10-18T02:37:07.344Z,98658.09
2022-10-18T02:41:10.900Z,98657.50
2022-10-18T02:45:15.305Z,98642.31
2022-10-18T02:49:18.979Z,98653.03
2022-10-18T02:53:23.885Z,98654.38
2022-10-18T02:57:27.319Z,98648.84
2022-10-18T03:01:30.379Z,98659.97
2022-10-18T03:05:33.882Z,98666.72
2022-10-18T03:09:38.791Z,98655.13
2022-10-18T03:13:42.288Z,98660.34
2022-10-18T03:17:45.241Z,98654.28
2022-10-18T03:21:48.777Z,98655.41
2022-10-18T03:25:53.396Z,98652.44
2022-10-18T03:29:57.204Z,98658.25
2022-10-18T03:34:00.242Z,98658.84
2022-10-18T03:38:03.749Z,98662.88
2022-10-18T03:42:08.040Z,98672.94
2022-10-18T03:46:11.504Z,98672.72
2022-10-18T03:50:14.982Z,98675.06
2022-10-18T03:54:18.268Z,98679.63
2022-10-18T03:58:24.078Z,98672.22
2022-10-18T04:02:27.808Z,98686.56
2022-10-18T04:06:30.773Z,98677.38
2022-10-18T04:10:34.615Z,98668.16
2022-10-18T04:14:39.569Z,98668.31
2022-10-18T04:18:43.000Z,98675.47
2022-10-18T04:22:46.318Z,98667.94
2022-10-18T04:26:49.336Z,98675.06
2022-10-18T04:30:55.133Z,98667.25
2022-10-18T04:34:58.110Z,98668.75
2022-10-18T04:39:01.486Z,98676.44
2022-10-18T04:43:04.598Z,98674.66
2022-10-18T04:47:09.496Z,98673.53
2022-10-18T04:51:12.525Z,98668.44
2022-10-18T04:55:15.974Z,98670.91
2022-10-18T04:59:19.139Z,98668.16
2022-10-18T05:03:24.083Z,98665.53
2022-10-18T05:07:29.845Z,98669.81
2022-10-18T05:11:33.380Z,98654.81
2022-10-18T05:15:36.442Z,98656.34
2022-10-18T05:19:41.341Z,98644.75
2022-10-18T05:23:45.026Z,98644.47
2022-10-18T05:27:48.003Z,98640.03
2022-10-18T05:31:51.851Z,98649.25
2022-10-18T05:35:56.599Z,98652.38
2022-10-18T05:39:59.703Z,98655.69
2022-10-18T05:44:06.780Z,98653.72
2022-10-18T05:52:14.432Z,98653.16
2022-10-18T05:56:17.669Z,98662.47
2022-10-18T06:00:21.272Z,98670.88
2022-10-18T06:04:24.576Z,98666.16
2022-10-18T06:08:29.531Z,98649.50
2022-10-18T06:12:32.527Z,98660.34
2022-10-18T06:20:40.677Z,98648.00
2022-10-18T06:24:45.512Z,98652.78
2022-10-18T06:28:48.934Z,98655.19
2022-10-18T06:32:52.488Z,98659.56
2022-10-18T06:36:56.701Z,98659.47
2022-10-18T06:41:04.136Z,98665.28
2022-10-18T06:45:08.813Z,98659.91
2022-10-18T06:49:14.063Z,98673.78
2022-10-18T06:53:18.784Z,98669.94
2022-10-18T06:57:23.189Z,98675.09
2022-10-18T07:01:27.213Z,98677.25
2022-10-18T07:05:30.904Z,98684.47
2022-10-18T07:09:34.179Z,98685.53
2022-10-18T07:13:39.055Z,98686.88
2022-10-18T07:17:42.939Z,98695.44
2022-10-18T07:21:45.911Z,98702.91
2022-10-18T07:25:49.724Z,98688.88
2022-10-18T07:29:54.722Z,98703.00
2022-10-18T07:33:57.920Z,98689.72
2022-10-18T07:38:01.502Z,98694.03
2022-10-18T07:42:05.880Z,98693.88
2022-10-18T07:46:10.515Z,98697.88
2022-10-18T07:50:14.198Z,98703.47
2022-10-18T07:54:18.019Z,98706.16
2022-10-18T07:58:21.269Z,98701.88
2022-10-18T08:02:26.220Z,98702.78
2022-10-18T08:06:29.825Z,98679.94
2022-10-18T08:10:32.887Z,98710.78
2022-10-18T08:14:36.355Z,98709.31
2022-10-18T08:18:42.014Z,98714.06
2022-10-18T08:22:45.039Z,98718.31
2022-10-18T08:26:50.605Z,98705.16
2022-10-18T08:30:54.151Z,98707.94
2022-10-18T08:34:58.732Z,98709.25
2022-10-18T08:39:03.367Z,98695.91
2022-10-18T08:43:10.489Z,98710.16
2022-10-18T08:47:16.080Z,98703.38
2022-10-18T08:51:33.170Z,98701.63
2022-10-18T08:55:41.521Z,98692.66
2022-10-18T08:59:46.259Z,98684.03
2022-10-18T09:04:06.466Z,98686.84
2022-10-18T09:08:29.127Z,98682.75
2022-10-18T09:12:47.236Z,98688.06
2022-10-18T09:17:04.336Z,98681.50
2022-10-18T09:21:20.570Z,98688.66
2022-10-18T09:25:28.614Z,98691.88
2022-10-18T09:29:44.519Z,98690.06
2022-10-18T09:33:55.247Z,98695.34
2022-10-18T09:38:05.164Z,98690.91
2022-10-18T09:42:21.259Z,98679.41
2022-10-18T09:46:29.647Z,98682.94
2022-10-18T09:50:40.088Z,98684.50
2022-10-18T09:54:48.062Z,98676.81
2022-10-18T09:58:53.330Z,98679.03
2022-10-18T10:02:56.929Z,98673.13
2022-10-18T10:07:03.149Z,98675.69
2022-10-18T10:11:06.451Z,98666.63
2022-10-18T10:15:21.078Z,98664.22
2022-10-18T10:19:28.932Z,98646.72
2022-10-18T10:23:38.086Z,98656.59
2022-10-18T10:27:45.759Z,98659.47
2022-10-18T10:32:04.526Z,98651.94
2022-10-18T10:36:19.378Z,98645.09
2022-10-18T10:40:27.814Z,98654.66
2022-10-18T10:44:35.336Z,98636.59
2022-10-18T10:48:48.454Z,98637.97
2022-10-18T10:52:52.074Z,98629.19
2022-10-18T10:57:01.836Z,98621.00
2022-10-18T11:01:24.528Z,98620.94
2022-10-18T11:05:29.938Z,98617.09
2022-10-18T11:09:59.752Z,98608.81
2022-10-18T11:18:35.293Z,98613.34
2022-10-18T11:22:45.728Z,98588.19
2022-10-18T11:26:54.650Z,98597.38
2022-10-18T11:31:13.793Z,98595.19
2022-10-18T11:35:31.044Z,98590.56
2022-10-18T11:39:48.647Z,98591.28
2022-10-18T11:44:02.619Z,98588.75
2022-10-18T11:52:22.981Z,98567.66
2022-10-18T11:56:37.036Z,98567.31
2022-10-18T12:00:49.584Z,98566.50
2022-10-18T12:05:22.133Z,98564.75
2022-10-18T12:09:26.198Z,98549.31
2022-10-18T12:13:38.172Z,98549.78
2022-10-18T12:17:50.144Z,98544.09
2022-10-18T12:21:54.527Z,98529.91
2022-10-18T12:26:02.791Z,98533.44
2022-10-18T12:30:16.022Z,98530.38
2022-10-18T12:34:33.530Z,98531.06
2022-10-18T12:38:39.137Z,98516.66
2022-10-18T12:42:44.607Z,98512.94
2022-10-18T12:46:52.524Z,98502.47
2022-10-18T12:51:01.077Z,98507.50
2022-10-18T12:55:30.289Z,98502.06
2022-10-18T12:59:51.294Z,98491.84
2022-10-18T13:03:59.193Z,98498.13
2022-10-18T13:08:23.080Z,98486.31
2022-10-18T13:13:05.029Z,98496.34
2022-10-18T13:17:30.853Z,98477.03
2022-10-18T13:21:45.441Z,98487.72
2022-10-18T13:26:00.065Z,98484.59
2022-10-18T13:30:29.115Z,98486.78
2022-10-18T13:34:37.828Z,98483.44
2022-10-18T13:38:48.581Z,98474.06
2022-10-18T13:42:51.854Z,98465.66
2022-10-18T13:47:14.404Z,98469.72
2022-10-18T13:51:36.879Z,98458.00
2022-10-18T13:56:04.139Z,98464.59
2022-10-18T14:00:26.670Z,98452.03
2022-10-18T14:04:47.917Z,98454.78
2022-10-18T14:09:03.201Z,98459.66
2022-10-18T14:13:21.554Z,98460.94
2022-10-18T14:17:32.017Z,98454.13
2022-10-18T14:21:39.731Z,98458.78
2022-10-18T14:25:43.581Z,98448.72
2022-10-18T14:29:49.219Z,98459.06
2022-10-18T14:33:57.952Z,98453.97
2022-10-18T14:38:02.580Z,98455.94
2022-10-18T14:42:05.601Z,98460.69
2022-10-18T14:46:20.145Z,98457.94
2022-10-18T14:50:30.251Z,98457.66
2022-10-18T14:54:38.097Z,98455.50
2022-10-18T14:58:43.059Z,98447.75
2022-10-18T15:02:48.051Z,98451.00
2022-10-18T15:06:51.077Z,98450.59
2022-10-18T15:10:55.309Z,98450.75
2022-10-18T15:15:01.839Z,98449.81
2022-10-18T15:19:08.646Z,98451.19
2022-10-18T15:23:25.029Z,98445.47
2022-10-18T15:27:33.217Z,98437.31
2022-10-18T15:31:38.881Z,98438.69
2022-10-18T15:35:43.685Z,98431.28
2022-10-18T15:39:47.197Z,98426.38
2022-10-18T15:43:50.738Z,98434.16
2022-10-18T15:48:18.629Z,98432.25
2022-10-18T15:52:45.817Z,98432.53
2022-10-18T15:56:49.318Z,98432.34
2022-10-18T16:00:54.400Z,98424.06
2022-10-18T16:04:59.812Z,98431.59
2022-10-18T16:09:05.502Z,98432.13
2022-10-18T16:13:08.627Z,98438.22
2022-10-18T16:17:17.602Z,98430.00
2022-10-18T16:21:22.793Z,98428.28
2022-10-18T16:25:27.320Z,98434.75
2022-10-18T16:29:32.725Z,98438.13
2022-10-18T16:33:36.955Z,98445.78
2022-10-18T16:37:40.535Z,98450.00
2022-10-18T16:41:45.483Z,98450.88
2022-10-18T16:45:48.736Z,98459.88
2022-10-18T16:49:52.183Z,98450.44
2022-10-18T16:53:56.462Z,98465.19
2022-10-18T16:58:01.603Z,98471.94
2022-10-18T17:02:09.136Z,98473.81
2022-10-18T17:06:17.433Z,98485.88
2022-10-18T17:10:24.817Z,98485.00
2022-10-18T17:14:29.299Z,98489.53
2022-10-18T17:18:33.323Z,98478.66
2022-10-18T17:22:36.607Z,98480.66
2022-10-18T17:26:40.410Z,98477.84
2022-10-18T17:30:45.625Z,98482.53
2022-10-18T17:34:49.044Z,98489.50
2022-10-18T17:38:52.871Z,98492.53
2022-10-18T17:42:56.411Z,98484.81
2022-10-18T17:47:00.930Z,98476.72
2022-10-18T17:51:09.743Z,98480.78
2022-10-18T17:55:16.160Z,98480.44
2022-10-18T18:03:31.714Z,98486.66
2022-10-18T18:07:35.377Z,98485.75
2022-10-18T18:11:40.940Z,98488.06
2022-10-18T18:15:44.134Z,98485.97
2022-10-18T18:19:49.562Z,98479.22
2022-10-18T18:23:53.309Z,98478.13
2022-10-18T18:27:56.913Z,98477.78
2022-10-18T18:32:00.773Z,98476.84
2022-10-18T18:36:09.689Z,98478.09
2022-10-18T18:40:13.698Z,98483.75
2022-10-18T18:44:19.673Z,98490.41
2022-10-18T18:48:23.513Z,98494.81
2022-10-18T18:52:28.137Z,98491.31
2022-10-18T18:56:31.929Z,98501.78
2022-10-18T19:00:38.135Z,98496.63
2022-10-18T19:04:47.652Z,98518.34
2022-10-18T19:08:55.245Z,98500.09
2022-10-18T19:12:58.376Z,98510.63
2022-10-18T19:17:02.225Z,98515.28
2022-10-18T19:21:06.944Z,98516.28
2022-10-18T19:25:12.211Z,98513.19
2022-10-18T19:29:18.347Z,98515.75
2022-10-18T19:33:35.588Z,98506.72
2022-10-18T19:37:45.926Z,98496.84
2022-10-18T19:41:52.088Z,98502.84
2022-10-18T19:45:55.761Z,98508.88
2022-10-18T19:49:59.915Z,98497.03
2022-10-18T19:54:03.371Z,98501.03
2022-10-18T19:58:09.787Z,98507.03
2022-10-18T20:02:15.618Z,98513.06
2022-10-18T20:06:19.552Z,98504.22
2022-10-18T20:10:23.269Z,98499.72
2022-10-18T20:14:28.017Z,98502.06
2022-10-18T20:18:31.507Z,98502.59
2022-10-18T20:22:34.741Z,98505.75
2022-10-18T20:26:38.728Z,98508.13
2022-10-18T20:30:43.427Z,98513.41
2022-10-18T20:34:46.483Z,98525.56
2022-10-18T20:38:50.589Z,98525.22
2022-10-18T20:42:54.450Z,98524.13
2022-10-18T20:46:58.842Z,98523.84
2022-10-18T20:51:04.960Z,98522.31
2022-10-18T20:55:09.187Z,98525.13
2022-10-18T20:59:12.339Z,98528.28
2022-10-18T21:03:17.254Z,98533.31
2022-10-18T21:07:20.782Z,98533.38
2022-10-18T21:11:25.014Z,98536.66
2022-10-18T21:15:28.231Z,98542.91
2022-10-18T21:19:33.419Z,98537.03
2022-10-18T21:23:36.973Z,98544.28
2022-10-18T21:27:40.683Z,98555.66
2022-10-18T21:31:46.680Z,98552.00
2022-10-18T21:35:51.783Z,98556.09
2022-10-18T21:39:55.574Z,98556.28
2022-10-18T21:43:58.583Z,98554.22
2022-10-18T21:48:01.992Z,98552.84
2022-10-18T21:52:07.126Z,98555.84
2022-10-18T21:56:12.846Z,98557.66
2022-10-18T22:00:17.675Z,98558.47
2022-10-18T22:04:23.235Z,98561.13
2022-10-18T22:08:27.829Z,98560.75
2022-10-18T22:12:31.495Z,98556.91
2022-10-18T22:16:36.082Z,98553.09
2022-10-18T22:20:39.048Z,98552.28
2022-10-18T22:24:43.397Z,98565.53
2022-10-18T22:28:47.653Z,98564.72
2022-10-18T22:32:51.020Z,98563.09
2022-10-18T22:36:55.490Z,98559.63
